createdAt,value
2024-05-09T00:00:43.752Z,99983.00
2024-05-09T00:03:31.898Z,99982.48
2024-05-09T00:05:59.773Z,99981.80
2024-05-09T00:08:27.632Z,99982.67
2024-05-09T00:10:55.290Z,99984.77
2024-05-09T00:13:23.002Z,99981.10
2024-05-09T00:15:50.650Z,99982.52
2024-05-09T00:18:18.481Z,99983.74
2024-05-09T00:20:46.437Z,99986.53
2024-05-09T00:23:14.280Z,99987.58
2024-05-09T00:25:45.518Z,99986.55
2024-05-09T00:28:13.601Z,99988.98
2024-05-09T00:30:41.662Z,99991.05
2024-05-09T00:33:10.858Z,99991.75
2024-05-09T00:35:39.789Z,99989.30
2024-05-09T00:38:08.112Z,99994.70
2024-05-09T00:40:43.350Z,99995.05
2024-05-09T00:43:12.944Z,99990.33
2024-05-09T00:45:42.031Z,99991.73
2024-05-09T00:48:14.342Z,99986.31
2024-05-09T00:50:46.208Z,99985.77
2024-05-09T00:53:17.283Z,99987.67
2024-05-09T00:55:47.376Z,99985.23
2024-05-09T00:58:18.386Z,99980.86
2024-05-09T01:00:46.562Z,99981.55
2024-05-09T01:03:14.693Z,99980.84
2024-05-09T01:05:44.359Z,99979.09
2024-05-09T01:08:13.368Z,99985.89
2024-05-09T01:10:44.828Z,99983.09
2024-05-09T01:13:14.013Z,99983.08
2024-05-09T01:15:42.257Z,99988.48
2024-05-09T01:18:12.376Z,99985.33
2024-05-09T01:20:44.170Z,99983.56
2024-05-09T01:23:15.218Z,99986.16
2024-05-09T01:25:46.206Z,99982.67
2024-05-09T01:28:15.088Z,99985.98
2024-05-09T01:30:43.515Z,99984.93
2024-05-09T01:33:12.507Z,99982.83
2024-05-09T01:35:42.519Z,99984.39
2024-05-09T01:38:17.079Z,99978.96
2024-05-09T01:40:45.838Z,99981.77
2024-05-09T01:43:13.681Z,99985.41
2024-05-09T01:45:41.743Z,99989.24
2024-05-09T01:48:10.780Z,99982.63
2024-05-09T01:50:42.025Z,99981.92
2024-05-09T01:53:14.347Z,99983.13
2024-05-09T01:55:43.902Z,99984.69
2024-05-09T01:58:11.763Z,99984.86
2024-05-09T02:00:42.282Z,99985.89
2024-05-09T02:03:14.962Z,99985.87
2024-05-09T02:05:47.453Z,99993.34
2024-05-09T02:08:18.926Z,99998.27
2024-05-09T02:10:49.025Z,99994.38
2024-05-09T02:13:17.172Z,99995.17
2024-05-09T02:15:45.173Z,99995.86
2024-05-09T02:18:13.524Z,99993.95
2024-05-09T02:20:42.918Z,99984.02
2024-05-09T02:23:11.475Z,99981.41
2024-05-09T02:25:40.077Z,99977.55
2024-05-09T02:28:07.885Z,99975.98
2024-05-09T02:30:40.040Z,99980.83
2024-05-09T02:33:12.292Z,99984.77
2024-05-09T02:35:42.999Z,99986.64
2024-05-09T02:38:12.386Z,99995.24
2024-05-09T02:40:40.801Z,99998.92
2024-05-09T02:43:12.199Z,99997.30
2024-05-09T02:45:41.193Z,99995.89
2024-05-09T02:48:13.395Z,99995.86
2024-05-09T02:50:44.072Z,99994.66
2024-05-09T02:53:12.768Z,99998.52
2024-05-09T02:55:42.301Z,100000.66
2024-05-09T02:58:11.104Z,99999.15
2024-05-09T03:00:41.807Z,99995.55
2024-05-09T03:03:13.628Z,99997.66
2024-05-09T03:05:44.648Z,99995.25
2024-05-09T03:08:13.026Z,99990.92
2024-05-09T03:10:41.074Z,99993.73
2024-05-09T03:13:12.164Z,99994.95
2024-05-09T03:15:40.700Z,99995.29
2024-05-09T03:18:08.725Z,99996.86
2024-05-09T03:20:37.698Z,99996.35
2024-05-09T03:23:07.863Z,99998.44
2024-05-09T03:25:36.440Z,99994.08
2024-05-09T03:28:04.366Z,100003.48
2024-05-09T03:30:39.924Z,100009.71
2024-05-09T03:33:12.230Z,100009.11
2024-05-09T03:35:41.089Z,100010.61
2024-05-09T03:38:09.103Z,100012.13
2024-05-09T03:40:44.044Z,100011.89
2024-05-09T03:43:13.159Z,100008.96
2024-05-09T03:45:42.060Z,100010.03
2024-05-09T03:48:10.109Z,100007.80
2024-05-09T03:50:38.290Z,100009.03
2024-05-09T03:53:09.723Z,100005.91
2024-05-09T03:55:37.392Z,100012.21
2024-05-09T03:58:07.669Z,100012.39
2024-05-09T04:00:38.998Z,100015.00
2024-05-09T04:03:10.613Z,100017.78
2024-05-09T04:05:42.349Z,100018.66
2024-05-09T04:08:11.496Z,100019.01
2024-05-09T04:10:39.433Z,100014.78
2024-05-09T04:13:07.080Z,100017.89
2024-05-09T04:15:34.720Z,100020.14
2024-05-09T04:18:02.869Z,100019.08
2024-05-09T04:20:37.998Z,100020.66
2024-05-09T04:23:13.559Z,100021.59
2024-05-09T04:25:44.223Z,100023.20
2024-05-09T04:28:12.486Z,100027.79
2024-05-09T04:30:41.630Z,100032.70
2024-05-09T04:33:12.566Z,100033.10
2024-05-09T04:35:43.435Z,100030.52
2024-05-09T04:38:12.643Z,100031.65
2024-05-09T04:40:40.415Z,100029.77
2024-05-09T04:43:15.128Z,100031.06
2024-05-09T04:45:42.997Z,100026.76
2024-05-09T04:48:11.137Z,100031.67
2024-05-09T04:50:39.869Z,100031.21
2024-05-09T04:53:10.411Z,100034.95
2024-05-09T04:55:40.466Z,100033.95
2024-05-09T04:58:09.487Z,100036.45
2024-05-09T05:00:39.886Z,100036.84
2024-05-09T05:03:13.196Z,100042.27
2024-05-09T05:05:45.220Z,100047.02
2024-05-09T05:08:18.940Z,100047.41
2024-05-09T05:10:48.570Z,100051.10
2024-05-09T05:13:20.063Z,100056.90
2024-05-09T05:15:50.470Z,100060.77
2024-05-09T05:18:18.963Z,100067.78
2024-05-09T05:20:47.040Z,100066.77
2024-05-09T05:23:16.662Z,100069.75
2024-05-09T05:25:48.186Z,100068.20
2024-05-09T05:28:16.919Z,100073.98
2024-05-09T05:30:45.576Z,100071.55
2024-05-09T05:33:14.926Z,100072.42
2024-05-09T05:35:43.098Z,100069.48
2024-05-09T05:38:11.442Z,100066.70
2024-05-09T05:40:40.517Z,100071.43
2024-05-09T05:43:10.466Z,100071.95
2024-05-09T05:45:39.200Z,100069.89
2024-05-09T05:48:07.949Z,100071.80
2024-05-09T05:50:38.080Z,100071.29
2024-05-09T05:53:08.208Z,100074.96
2024-05-09T05:55:37.582Z,100080.92
2024-05-09T05:58:05.326Z,100080.94
2024-05-09T06:00:38.929Z,100077.11
2024-05-09T06:03:09.264Z,100080.25
2024-05-09T06:05:43.451Z,100079.38
2024-05-09T06:08:12.124Z,100075.91
2024-05-09T06:10:41.373Z,100076.27
2024-05-09T06:13:13.389Z,100078.36
2024-05-09T06:15:42.602Z,100078.02
2024-05-09T06:18:12.205Z,100074.89
2024-05-09T06:20:41.928Z,100073.33
2024-05-09T06:23:10.933Z,100070.74
2024-05-09T06:25:38.762Z,100071.79
2024-05-09T06:28:06.682Z,100071.09
2024-05-09T06:30:40.078Z,100069.35
2024-05-09T06:33:12.889Z,100067.26
2024-05-09T06:35:43.565Z,100069.70
2024-05-09T06:38:11.949Z,100069.36
2024-05-09T06:40:42.596Z,100069.02
2024-05-09T06:43:17.691Z,100070.58
2024-05-09T06:45:48.678Z,100068.31
2024-05-09T06:48:20.885Z,100071.47
2024-05-09T06:50:49.804Z,100075.30
2024-05-09T06:53:21.741Z,100077.05
2024-05-09T06:55:49.963Z,100079.51
2024-05-09T06:58:17.701Z,100078.63
2024-05-09T07:00:45.443Z,100080.36
2024-05-09T07:03:16.990Z,100079.14
2024-05-09T07:05:48.348Z,100073.35
2024-05-09T07:08:18.012Z,100072.65
2024-05-09T07:10:46.117Z,100070.02
2024-05-09T07:13:15.078Z,100074.21
2024-05-09T07:15:43.599Z,100069.48
2024-05-09T07:18:13.150Z,100070.34
2024-05-09T07:20:41.610Z,100070.85
2024-05-09T07:23:10.602Z,100070.66
2024-05-09T07:25:40.279Z,100071.19
2024-05-09T07:28:14.185Z,100062.75
2024-05-09T07:30:42.507Z,100063.61
2024-05-09T07:33:19.802Z,100062.04
2024-05-09T07:35:48.540Z,100060.61
2024-05-09T07:38:16.309Z,100062.34
2024-05-09T07:40:44.098Z,100059.19
2024-05-09T07:43:12.974Z,100059.15
2024-05-09T07:45:50.453Z,100055.09
2024-05-09T07:52:37.264Z,100055.73
2024-05-09T07:53:46.561Z,100054.99
2024-05-09T07:56:18.594Z,100053.20
2024-05-09T07:58:47.307Z,100054.04
2024-05-09T08:01:15.428Z,100054.50
2024-05-09T08:03:43.391Z,100056.39
2024-05-09T08:06:11.199Z,100052.31
2024-05-09T08:08:38.897Z,100050.50
2024-05-09T08:11:06.778Z,100048.52
2024-05-09T08:13:34.723Z,100049.52
2024-05-09T08:16:02.529Z,100051.56
2024-05-09T08:18:30.519Z,100048.52
2024-05-09T08:20:58.797Z,100049.86
2024-05-09T08:23:26.445Z,100051.02
2024-05-09T08:25:54.115Z,100048.88
2024-05-09T08:28:21.811Z,100047.04
2024-05-09T08:30:49.851Z,100042.42
2024-05-09T08:33:17.857Z,100043.08
2024-05-09T08:35:45.724Z,100043.58
2024-05-09T08:38:13.449Z,100045.60
2024-05-09T08:40:41.700Z,100045.34
2024-05-09T08:43:11.875Z,100041.23
2024-05-09T08:45:45.123Z,100041.16
2024-05-09T08:48:15.398Z,100044.59
2024-05-09T08:50:45.130Z,100047.14
2024-05-09T08:53:16.471Z,100049.15
2024-05-09T08:55:46.243Z,100050.30
2024-05-09T08:58:17.933Z,100046.19
2024-05-09T09:00:46.633Z,100048.17
2024-05-09T09:03:17.861Z,100043.14
2024-05-09T09:05:53.382Z,100042.30
2024-05-09T09:08:21.851Z,100043.94
2024-05-09T09:10:53.703Z,100045.06
2024-05-09T09:13:21.401Z,100040.20
2024-05-09T09:15:50.282Z,100042.89
2024-05-09T09:18:18.832Z,100037.65
2024-05-09T09:20:46.950Z,100035.41
2024-05-09T09:23:14.857Z,100034.58
2024-05-09T09:25:42.618Z,100037.38
2024-05-09T09:28:10.779Z,100035.07
2024-05-09T09:30:40.384Z,100037.33
2024-05-09T09:33:09.389Z,100032.73
2024-05-09T09:35:39.686Z,100032.57
2024-05-09T09:38:09.910Z,100028.53
2024-05-09T09:40:46.673Z,100025.91
2024-05-09T09:43:22.493Z,100024.67
2024-05-09T09:45:52.394Z,100026.89
2024-05-09T09:48:22.171Z,100029.24
2024-05-09T09:50:55.417Z,100022.73
2024-05-09T09:53:23.604Z,100020.98
2024-05-09T09:55:52.870Z,100025.59
2024-05-09T09:58:21.409Z,100016.39
2024-05-09T10:00:49.384Z,100021.35
2024-05-09T10:03:17.261Z,100021.30
2024-05-09T10:05:47.349Z,100022.82
2024-05-09T10:08:17.658Z,100025.75
2024-05-09T10:10:50.081Z,100029.36
2024-05-09T10:13:19.942Z,100029.89
2024-05-09T10:15:52.416Z,100032.63
2024-05-09T10:18:28.210Z,100029.55
2024-05-09T10:20:59.473Z,100023.92
2024-05-09T10:23:32.892Z,100024.00
2024-05-09T10:26:02.996Z,100020.05
2024-05-09T10:28:32.940Z,100021.00
2024-05-09T10:31:11.304Z,100020.23
2024-05-09T10:33:45.256Z,100017.91
2024-05-09T10:36:23.710Z,100018.84
2024-05-09T10:38:53.486Z,100014.36
2024-05-09T10:41:22.986Z,100015.44
2024-05-09T10:43:51.615Z,100011.31
2024-05-09T10:46:20.163Z,100009.48
2024-05-09T10:48:48.732Z,100009.58
2024-05-09T10:51:19.291Z,100008.02
2024-05-09T10:53:48.235Z,100011.84
2024-05-09T10:56:16.588Z,100006.92
2024-05-09T10:58:44.657Z,100005.02
2024-05-09T11:01:13.283Z,100006.07
2024-05-09T11:03:41.711Z,100005.11
2024-05-09T11:06:11.184Z,100004.24
2024-05-09T11:08:39.311Z,100004.48
2024-05-09T11:11:08.614Z,100000.32
2024-05-09T11:13:38.313Z,100000.17
2024-05-09T11:16:17.412Z,99995.80
2024-05-09T11:18:57.053Z,99991.63
2024-05-09T11:21:25.106Z,99995.79
2024-05-09T11:23:53.305Z,99985.56
2024-05-09T11:26:25.213Z,99985.81
2024-05-09T11:28:53.146Z,99984.97
2024-05-09T11:31:21.043Z,99978.95
2024-05-09T11:33:49.200Z,99976.50
2024-05-09T11:36:17.225Z,99978.80
2024-05-09T11:38:44.959Z,99972.69
2024-05-09T11:41:17.532Z,99972.35
2024-05-09T11:43:45.525Z,99968.84
2024-05-09T11:46:13.666Z,99972.77
2024-05-09T11:48:41.785Z,99970.02
2024-05-09T11:51:09.688Z,99970.05
2024-05-09T11:53:37.435Z,99970.88
2024-05-09T11:56:05.638Z,99964.49
2024-05-09T11:58:34.820Z,99961.48
2024-05-09T12:01:02.862Z,99962.00
2024-05-09T12:03:30.989Z,99963.17
2024-05-09T12:05:59.181Z,99964.55
2024-05-09T12:08:27.247Z,99958.02
2024-05-09T12:10:55.154Z,99957.58
2024-05-09T12:13:23.228Z,99954.50
2024-05-09T12:15:51.038Z,99948.98
2024-05-09T12:18:18.835Z,99952.53
2024-05-09T12:20:46.679Z,99949.98
2024-05-09T12:23:14.581Z,99951.19
2024-05-09T12:25:42.262Z,99951.98
2024-05-09T12:28:10.008Z,99950.23
2024-05-09T12:30:40.106Z,99947.63
2024-05-09T12:33:13.079Z,99944.80
2024-05-09T12:35:44.486Z,99941.24
2024-05-09T12:38:15.302Z,99938.71
2024-05-09T12:40:43.600Z,99936.20
2024-05-09T12:43:11.947Z,99933.30
2024-05-09T12:45:40.490Z,99938.50
2024-05-09T12:48:11.742Z,99937.02
2024-05-09T12:50:41.233Z,99939.11
2024-05-09T12:53:09.345Z,99933.06
2024-05-09T12:55:44.803Z,99928.59
2024-05-09T12:58:23.891Z,99930.38
2024-05-09T13:00:52.471Z,99930.69
2024-05-09T13:03:21.273Z,99935.06
2024-05-09T13:05:50.658Z,99929.06
2024-05-09T13:08:19.599Z,99927.15
2024-05-09T13:10:48.116Z,99920.93
2024-05-09T13:13:16.149Z,99918.90
2024-05-09T13:15:44.029Z,99913.29
2024-05-09T13:18:11.823Z,99914.79
2024-05-09T13:20:39.523Z,99915.71
2024-05-09T13:23:08.474Z,99916.66
2024-05-09T13:25:38.051Z,99910.39
2024-05-09T13:28:07.682Z,99907.89
2024-05-09T13:30:40.426Z,99900.86
2024-05-09T13:33:11.632Z,99903.96
2024-05-09T13:35:47.359Z,99899.73
2024-05-09T13:38:19.819Z,99902.19
2024-05-09T13:40:48.433Z,99897.27
2024-05-09T13:43:17.638Z,99892.10
2024-05-09T13:45:46.014Z,99891.56
2024-05-09T13:48:14.185Z,99888.80
2024-05-09T13:50:42.219Z,99886.54
2024-05-09T13:53:09.905Z,99887.11
2024-05-09T13:55:38.696Z,99881.13
2024-05-09T13:58:08.326Z,99880.85
2024-05-09T14:00:44.974Z,99878.37
2024-05-09T14:03:19.691Z,99876.84
2024-05-09T14:05:50.835Z,99876.26
2024-05-09T14:08:21.434Z,99872.66
2024-05-09T14:10:49.601Z,99871.54
2024-05-09T14:13:17.993Z,99871.06
2024-05-09T14:15:46.667Z,99871.28
2024-05-09T14:18:14.986Z,99869.05
2024-05-09T14:20:43.171Z,99866.09
2024-05-09T14:23:11.323Z,99866.79
2024-05-09T14:25:42.692Z,99863.23
2024-05-09T14:28:13.051Z,99861.45
2024-05-09T14:30:42.653Z,99861.09
2024-05-09T14:33:11.578Z,99860.50
2024-05-09T14:35:39.566Z,99855.31
2024-05-09T14:38:08.819Z,99858.31
2024-05-09T14:40:42.370Z,99857.95
2024-05-09T14:43:13.829Z,99856.97
2024-05-09T14:45:43.474Z,99857.22
2024-05-09T14:48:14.156Z,99853.91
2024-05-09T14:50:42.229Z,99845.95
2024-05-09T14:53:11.209Z,99847.27
2024-05-09T14:55:41.349Z,99846.27
2024-05-09T14:58:11.506Z,99841.92
2024-05-09T15:00:45.922Z,99838.74
2024-05-09T15:03:18.652Z,99834.39
2024-05-09T15:05:47.751Z,99836.22
2024-05-09T15:08:17.274Z,99834.23
2024-05-09T15:10:45.182Z,99831.83
2024-05-09T15:13:15.548Z,99828.56
2024-05-09T15:15:44.584Z,99826.18
2024-05-09T15:18:14.065Z,99825.38
2024-05-09T15:20:44.560Z,99825.36
2024-05-09T15:23:12.496Z,99822.43
2024-05-09T15:25:40.424Z,99819.23
2024-05-09T15:28:08.770Z,99815.27
2024-05-09T15:30:37.238Z,99817.97
2024-05-09T15:33:06.969Z,99816.67
2024-05-09T15:35:35.951Z,99817.35
2024-05-09T15:38:04.571Z,99818.09
2024-05-09T15:40:39.388Z,99816.70
2024-05-09T15:43:10.603Z,99816.00
2024-05-09T15:45:40.864Z,99813.66
2024-05-09T15:48:10.326Z,99817.36
2024-05-09T15:50:41.213Z,99812.39
2024-05-09T15:53:12.541Z,99809.66
2024-05-09T15:55:42.172Z,99806.06
2024-05-09T15:58:10.712Z,99803.73
2024-05-09T16:00:42.114Z,99803.65
2024-05-09T16:03:13.116Z,99806.52
2024-05-09T16:05:46.578Z,99804.52
2024-05-09T16:08:15.585Z,99802.45
2024-05-09T16:10:45.974Z,99802.23
2024-05-09T16:13:15.611Z,99803.09
2024-05-09T16:15:43.993Z,99804.61
2024-05-09T16:18:12.817Z,99803.94
2024-05-09T16:20:42.514Z,99803.73
2024-05-09T16:23:12.558Z,99804.08
2024-05-09T16:25:45.147Z,99803.42
2024-05-09T16:28:13.454Z,99801.39
2024-05-09T16:30:41.656Z,99800.16
2024-05-09T16:33:11.793Z,99796.33
2024-05-09T16:35:40.535Z,99799.94
2024-05-09T16:38:08.811Z,99799.48
2024-05-09T16:40:40.056Z,99802.15
2024-05-09T16:43:11.757Z,99799.47
2024-05-09T16:45:41.274Z,99801.71
2024-05-09T16:48:09.299Z,99799.52
2024-05-09T16:50:37.928Z,99799.45
2024-05-09T16:53:06.829Z,99798.17
2024-05-09T16:55:36.004Z,99799.58
2024-05-09T16:58:06.387Z,99801.07
2024-05-09T17:00:40.811Z,99800.00
2024-05-09T17:03:15.577Z,99795.20
2024-05-09T17:05:46.771Z,99796.83
2024-05-09T17:08:17.781Z,99797.03
2024-05-09T17:10:48.905Z,99797.90
2024-05-09T17:13:18.144Z,99801.59
2024-05-09T17:15:46.855Z,99794.16
2024-05-09T17:18:15.079Z,99796.63
2024-05-09T17:20:42.892Z,99797.71
2024-05-09T17:23:13.919Z,99802.50
2024-05-09T17:25:42.860Z,99800.56
2024-05-09T17:28:11.239Z,99797.90
2024-05-09T17:30:42.492Z,99799.86
2024-05-09T17:33:12.399Z,99801.27
2024-05-09T17:35:41.121Z,99797.93
2024-05-09T17:38:09.279Z,99797.26
2024-05-09T17:40:38.462Z,99796.05
2024-05-09T17:43:09.458Z,99799.24
2024-05-09T17:45:40.087Z,99797.85
2024-05-09T17:48:10.111Z,99795.42
2024-05-09T17:50:39.117Z,99792.45
2024-05-09T17:53:10.954Z,99788.27
2024-05-09T17:55:39.901Z,99788.11
2024-05-09T17:58:08.424Z,99793.79
2024-05-09T18:00:39.972Z,99798.21
2024-05-09T18:03:14.432Z,99796.98
2024-05-09T18:05:44.786Z,99793.99
2024-05-09T18:08:13.718Z,99799.13
2024-05-09T18:10:42.237Z,99801.80
2024-05-09T18:13:13.700Z,99805.52
2024-05-09T18:15:41.999Z,99807.12
2024-05-09T18:18:10.490Z,99813.12
2024-05-09T18:20:43.817Z,99807.50
2024-05-09T18:23:16.583Z,99806.86
2024-05-09T18:25:47.122Z,99809.02
2024-05-09T18:28:17.143Z,99807.79
2024-05-09T18:30:45.509Z,99807.95
2024-05-09T18:33:13.934Z,99810.92
2024-05-09T18:35:44.994Z,99816.68
2024-05-09T18:38:12.939Z,99822.80
2024-05-09T18:40:42.828Z,99827.34
2024-05-09T18:43:11.926Z,99829.44
2024-05-09T18:45:39.989Z,99831.55
2024-05-09T18:48:09.662Z,99834.27
2024-05-09T18:50:40.492Z,99832.91
2024-05-09T18:53:11.808Z,99841.09
2024-05-09T18:55:42.044Z,99845.16
2024-05-09T18:58:09.894Z,99844.14
2024-05-09T19:00:40.343Z,99847.00
2024-05-09T19:03:12.915Z,99847.27
2024-05-09T19:05:44.695Z,99850.20
2024-05-09T19:08:14.922Z,99852.77
2024-05-09T19:10:46.050Z,99851.01
2024-05-09T19:13:14.898Z,99852.21
2024-05-09T19:15:44.117Z,99853.61
2024-05-09T19:18:13.700Z,99856.13
2024-05-09T19:20:42.383Z,99857.40
2024-05-09T19:23:11.623Z,99858.85
2024-05-09T19:25:39.704Z,99858.21
2024-05-09T19:28:07.456Z,99856.70
2024-05-09T19:30:40.243Z,99861.35
2024-05-09T19:33:13.024Z,99859.94
2024-05-09T19:35:42.331Z,99862.73
2024-05-09T19:38:10.854Z,99865.37
2024-05-09T19:40:38.710Z,99864.55
2024-05-09T19:43:06.975Z,99861.45
2024-05-09T19:45:36.098Z,99864.46
2024-05-09T19:48:06.103Z,99867.98
2024-05-09T19:50:41.059Z,99870.64
2024-05-09T19:53:13.378Z,99868.38
2024-05-09T19:55:42.280Z,99871.94
2024-05-09T19:58:10.799Z,99872.70
2024-05-09T20:00:41.511Z,99876.27
2024-05-09T20:03:12.424Z,99874.41
2024-05-09T20:05:47.377Z,99878.34
2024-05-09T20:08:16.110Z,99878.27
2024-05-09T20:10:44.026Z,99882.08
2024-05-09T20:13:11.892Z,99887.81
2024-05-09T20:15:39.918Z,99892.08
2024-05-09T20:18:08.114Z,99892.49
2024-05-09T20:20:40.088Z,99891.15
2024-05-09T20:23:11.384Z,99889.45
2024-05-09T20:25:40.052Z,99888.14
2024-05-09T20:28:08.050Z,99891.37
2024-05-09T20:30:36.435Z,99889.48
2024-05-09T20:33:07.447Z,99892.73
2024-05-09T20:35:36.553Z,99892.45
2024-05-09T20:38:04.872Z,99894.45
2024-05-09T20:40:37.159Z,99895.19
2024-05-09T20:43:10.696Z,99893.98
2024-05-09T20:45:39.814Z,99893.10
2024-05-09T20:48:09.217Z,99893.98
2024-05-09T20:50:40.850Z,99898.38
2024-05-09T20:53:12.897Z,99895.59
2024-05-09T20:55:45.309Z,99896.67
2024-05-09T20:58:14.148Z,99898.98
2024-05-09T21:00:44.716Z,99899.02
2024-05-09T21:03:16.513Z,99898.33
2024-05-09T21:05:46.339Z,99900.63
2024-05-09T21:08:14.748Z,99900.99
2024-05-09T21:10:42.669Z,99900.31
2024-05-09T21:13:11.256Z,99898.80
2024-05-09T21:15:39.139Z,99895.54
2024-05-09T21:18:08.158Z,99894.02
2024-05-09T21:20:37.510Z,99891.77
2024-05-09T21:23:05.443Z,99894.76
2024-05-09T21:25:33.150Z,99895.65
2024-05-09T21:28:01.143Z,99894.63
2024-05-09T21:30:38.532Z,99893.23
2024-05-09T21:33:12.849Z,99900.45
2024-05-09T21:35:43.846Z,99899.78
2024-05-09T21:38:14.371Z,99899.63
2024-05-09T21:40:43.656Z,99903.86
2024-05-09T21:43:11.664Z,99902.88
2024-05-09T21:45:39.574Z,99905.93
2024-05-09T21:48:08.084Z,99912.63
2024-05-09T21:50:40.351Z,99908.28
2024-05-09T21:53:11.772Z,99914.41
2024-05-09T21:55:39.865Z,99912.66
2024-05-09T21:58:07.973Z,99915.11
2024-05-09T22:00:39.174Z,99913.20
2024-05-09T22:03:08.767Z,99914.80
2024-05-09T22:05:39.162Z,99916.38
2024-05-09T22:08:07.568Z,99916.73
2024-05-09T22:10:36.936Z,99912.36
2024-05-09T22:13:06.659Z,99908.71
2024-05-09T22:15:37.433Z,99911.51
2024-05-09T22:18:08.020Z,99907.49
2024-05-09T22:20:38.912Z,99905.92
2024-05-09T22:23:08.733Z,99901.75
2024-05-09T22:25:38.550Z,99906.47
2024-05-09T22:28:06.720Z,99903.33
2024-05-09T22:30:38.202Z,99904.20
2024-05-09T22:33:09.717Z,99900.38
2024-05-09T22:35:40.363Z,99897.58
2024-05-09T22:38:08.928Z,99900.04
2024-05-09T22:40:45.481Z,99904.24
2024-05-09T22:43:19.022Z,99895.87
2024-05-09T22:45:47.358Z,99899.36
2024-05-09T22:48:15.574Z,99898.68
2024-05-09T22:50:43.425Z,99896.38
2024-05-09T22:53:11.128Z,99897.95
2024-05-09T22:55:38.784Z,99893.23
2024-05-09T22:58:06.657Z,99891.84
2024-05-09T23:00:34.813Z,99890.96
2024-05-09T23:03:03.212Z,99891.49
2024-05-09T23:05:32.074Z,99888.70
2024-05-09T23:08:02.995Z,99890.27
2024-05-09T23:10:36.155Z,99892.54
2024-05-09T23:13:07.401Z,99893.07
2024-05-09T23:15:39.688Z,99892.73
2024-05-09T23:18:07.978Z,99893.23
2024-05-09T23:20:38.975Z,99893.94
2024-05-09T23:23:09.801Z,99891.31
2024-05-09T23:25:38.774Z,99890.27
2024-05-09T23:28:07.287Z,99891.85
2024-05-09T23:30:38.853Z,99894.13
2024-05-09T23:33:13.094Z,99892.20
2024-05-09T23:35:43.523Z,99893.77
2024-05-09T23:38:12.307Z,99895.69
2024-05-09T23:40:41.707Z,99894.13
2024-05-09T23:43:12.207Z,99892.73
2024-05-09T23:45:41.556Z,99890.44
2024-05-09T23:48:10.452Z,99896.04
2024-05-09T23:50:40.071Z,99896.21
2024-05-09T23:53:09.806Z,99894.64
2024-05-09T23:55:38.998Z,99890.27
2024-05-09T23:58:07.804Z,99890.98
